sensor_id;sensor_type;location;lat;lon;timestamp;pressure;altitude;pressure_sealevel;temperature;humidity
17060;BME280;8646;49.716;9.266;2023-10-31T00:01:33;98559.41;;;13.30;100.00
17060;BME280;8646;49.716;9.266;2023-10-31T00:04:36;98560.91;;;13.34;100.00
17060;BME280;8646;49.716;9.266;2023-10-31T00:07:39;98555.84;;;13.19;100.00
17060;BME280;8646;49.716;9.266;2023-10-31T00:10:44;98541.63;;;12.93;100.00
17060;BME280;8646;49.716;9.266;2023-10-31T00:13:47;98578.94;;;13.13;100.00
17060;BME280;8646;49.716;9.266;2023-10-31T00:16:50;98581.97;;;13.09;100.00
17060;BME280;8646;49.716;9.266;2023-10-31T00:19:53;98585.06;;;13.04;100.00
17060;BME280;8646;49.716;9.266;2023-10-31T00:22:56;98575.44;;;13.00;100.00
17060;BME280;8646;49.716;9.266;2023-10-31T00:26:00;98567.78;;;12.94;100.00
17060;BME280;8646;49.716;9.266;2023-10-31T00:29:03;98578.00;;;12.90;100.00
17060;BME280;8646;49.716;9.266;2023-10-31T00:32:07;98566.78;;;12.84;100.00
17060;BME280;8646;49.716;9.266;2023-10-31T00:35:09;98589.75;;;12.80;100.00
17060;BME280;8646;49.716;9.266;2023-10-31T00:38:14;98589.97;;;12.77;100.00
17060;BME280;8646;49.716;9.266;2023-10-31T00:41:18;98582.47;;;12.80;100.00
17060;BME280;8646;49.716;9.266;2023-10-31T00:44:21;98586.50;;;12.75;100.00
17060;BME280;8646;49.716;9.266;2023-10-31T00:47:24;98586.63;;;12.73;100.00
17060;BME280;8646;49.716;9.266;2023-10-31T00:50:27;98592.91;;;12.63;100.00
17060;BME280;8646;49.716;9.266;2023-10-31T00:53:31;98590.81;;;12.66;100.00
17060;BME280;8646;49.716;9.266;2023-10-31T00:56:35;98598.56;;;12.59;100.00
17060;BME280;8646;49.716;9.266;2023-10-31T00:59:38;98593.41;;;12.56;100.00
17060;BME280;8646;49.716;9.266;2023-10-31T01:02:41;98603.97;;;12.48;100.00
17060;BME280;8646;49.716;9.266;2023-10-31T01:05:44;98613.22;;;12.46;100.00
17060;BME280;8646;49.716;9.266;2023-10-31T01:08:46;98610.97;;;12.40;100.00
17060;BME280;8646;49.716;9.266;2023-10-31T01:11:51;98618.59;;;12.35;100.00
17060;BME280;8646;49.716;9.266;2023-10-31T01:14:53;98619.28;;;12.26;100.00
17060;BME280;8646;49.716;9.266;2023-10-31T01:17:56;98619.53;;;12.22;100.00
17060;BME280;8646;49.716;9.266;2023-10-31T01:20:59;98623.81;;;12.14;100.00
17060;BME280;8646;49.716;9.266;2023-10-31T01:24:03;98619.19;;;12.03;100.00
17060;BME280;8646;49.716;9.266;2023-10-31T01:27:07;98625.47;;;12.04;100.00
17060;BME280;8646;49.716;9.266;2023-10-31T01:30:11;98622.38;;;11.97;100.00
17060;BME280;8646;49.716;9.266;2023-10-31T01:33:14;98622.94;;;11.90;100.00
17060;BME280;8646;49.716;9.266;2023-10-31T01:36:17;98635.22;;;11.82;100.00
17060;BME280;8646;49.716;9.266;2023-10-31T01:39:21;98624.72;;;11.78;100.00
17060;BME280;8646;49.716;9.266;2023-10-31T01:42:25;98635.31;;;11.68;100.00
17060;BME280;8646;49.716;9.266;2023-10-31T01:45:28;98620.59;;;11.72;100.00
17060;BME280;8646;49.716;9.266;2023-10-31T01:48:32;98595.09;;;11.51;100.00
17060;BME280;8646;49.716;9.266;2023-10-31T01:51:35;98619.53;;;11.62;100.00
17060;BME280;8646;49.716;9.266;2023-10-31T01:54:38;98611.75;;;11.58;100.00
17060;BME280;8646;49.716;9.266;2023-10-31T01:57:44;98607.53;;;11.54;100.00
17060;BME280;8646;49.716;9.266;2023-10-31T02:00:50;98602.16;;;11.41;100.00
17060;BME280;8646;49.716;9.266;2023-10-31T02:03:54;98599.44;;;11.41;100.00
17060;BME280;8646;49.716;9.266;2023-10-31T02:06:56;98601.59;;;11.36;100.00
17060;BME280;8646;49.716;9.266;2023-10-31T02:09:59;98598.72;;;11.26;100.00
17060;BME280;8646;49.716;9.266;2023-10-31T02:13:11;98604.72;;;11.19;100.00
17060;BME280;8646;49.716;9.266;2023-10-31T02:16:14;98621.47;;;11.11;100.00
17060;BME280;8646;49.716;9.266;2023-10-31T02:19:19;98635.69;;;11.02;100.00
17060;BME280;8646;49.716;9.266;2023-10-31T02:22:23;98648.66;;;10.97;100.00
17060;BME280;8646;49.716;9.266;2023-10-31T02:25:26;98667.94;;;10.92;100.00
17060;BME280;8646;49.716;9.266;2023-10-31T02:28:29;98672.38;;;10.93;100.00
17060;BME280;8646;49.716;9.266;2023-10-31T02:31:32;98675.81;;;10.95;100.00
17060;BME280;8646;49.716;9.266;2023-10-31T02:34:35;98677.03;;;10.91;100.00
17060;BME280;8646;49.716;9.266;2023-10-31T02:37:39;98681.38;;;10.94;100.00
17060;BME280;8646;49.716;9.266;2023-10-31T02:40:42;98674.00;;;10.83;100.00
17060;BME280;8646;49.716;9.266;2023-10-31T02:43:45;98696.84;;;10.92;100.00
17060;BME280;8646;49.716;9.266;2023-10-31T02:46:48;98698.88;;;10.88;100.00
17060;BME280;8646;49.716;9.266;2023-10-31T02:49:50;98700.63;;;10.89;100.00
17060;BME280;8646;49.716;9.266;2023-10-31T02:52:55;98708.44;;;10.94;100.00
17060;BME280;8646;49.716;9.266;2023-10-31T02:55:57;98703.88;;;10.94;100.00
17060;BME280;8646;49.716;9.266;2023-10-31T02:59:01;98676.38;;;10.88;100.00
17060;BME280;8646;49.716;9.266;2023-10-31T03:02:04;98706.06;;;11.02;100.00
17060;BME280;8646;49.716;9.266;2023-10-31T03:05:07;98708.00;;;11.13;100.00
17060;BME280;8646;49.716;9.266;2023-10-31T03:08:11;98716.53;;;11.19;100.00
17060;BME280;8646;49.716;9.266;2023-10-31T03:11:21;98697.41;;;11.35;100.00
17060;BME280;8646;49.716;9.266;2023-10-31T03:14:24;98708.00;;;11.38;100.00
17060;BME280;8646;49.716;9.266;2023-10-31T03:17:27;98699.88;;;11.38;100.00
17060;BME280;8646;49.716;9.266;2023-10-31T03:20:30;98701.16;;;11.45;100.00
17060;BME280;8646;49.716;9.266;2023-10-31T03:23:34;98696.09;;;11.40;100.00
17060;BME280;8646;49.716;9.266;2023-10-31T03:26:37;98706.03;;;11.40;100.00
17060;BME280;8646;49.716;9.266;2023-10-31T03:29:39;98708.22;;;11.35;100.00
17060;BME280;8646;49.716;9.266;2023-10-31T03:32:42;98711.25;;;11.43;100.00
17060;BME280;8646;49.716;9.266;2023-10-31T03:35:45;98720.97;;;11.45;100.00
17060;BME280;8646;49.716;9.266;2023-10-31T03:38:50;98722.16;;;11.54;100.00
17060;BME280;8646;49.716;9.266;2023-10-31T03:41:53;98721.19;;;11.55;100.00
17060;BME280;8646;49.716;9.266;2023-10-31T03:44:55;98728.44;;;11.55;100.00
17060;BME280;8646;49.716;9.266;2023-10-31T03:47:58;98741.56;;;11.61;100.00
17060;BME280;8646;49.716;9.266;2023-10-31T03:51:01;98736.59;;;11.67;100.00
17060;BME280;8646;49.716;9.266;2023-10-31T03:54:05;98737.75;;;11.63;100.00
17060;BME280;8646;49.716;9.266;2023-10-31T03:57:08;98736.59;;;11.67;100.00
17060;BME280;8646;49.716;9.266;2023-10-31T04:00:12;98739.91;;;11.71;100.00
17060;BME280;8646;49.716;9.266;2023-10-31T04:03:15;98746.22;;;11.71;100.00
17060;BME280;8646;49.716;9.266;2023-10-31T04:06:18;98747.41;;;11.67;100.00
17060;BME280;8646;49.716;9.266;2023-10-31T04:09:22;98749.13;;;11.68;100.00
17060;BME280;8646;49.716;9.266;2023-10-31T04:12:25;98756.53;;;11.66;100.00
17060;BME280;8646;49.716;9.266;2023-10-31T04:20:16;98756.28;;;11.69;100.00
17060;BME280;8646;49.716;9.266;2023-10-31T04:23:42;98755.31;;;11.70;100.00
17060;BME280;8646;49.716;9.266;2023-10-31T04:26:47;98760.53;;;11.73;100.00
17060;BME280;8646;49.716;9.266;2023-10-31T04:29:49;98755.91;;;11.75;100.00
17060;BME280;8646;49.716;9.266;2023-10-31T04:32:52;98743.94;;;11.78;100.00
17060;BME280;8646;49.716;9.266;2023-10-31T04:35:55;98751.44;;;11.74;100.00
17060;BME280;8646;49.716;9.266;2023-10-31T04:38:57;98758.69;;;11.74;100.00
17060;BME280;8646;49.716;9.266;2023-10-31T04:42:02;98746.56;;;11.67;100.00
17060;BME280;8646;49.716;9.266;2023-10-31T04:45:06;98758.59;;;11.75;100.00
17060;BME280;8646;49.716;9.266;2023-10-31T04:48:10;98758.47;;;11.77;100.00
17060;BME280;8646;49.716;9.266;2023-10-31T04:51:13;98758.47;;;11.77;100.00
17060;BME280;8646;49.716;9.266;2023-10-31T04:54:16;98764.09;;;11.74;100.00
17060;BME280;8646;49.716;9.266;2023-10-31T04:57:20;98776.00;;;11.71;100.00
17060;BME280;8646;49.716;9.266;2023-10-31T05:00:23;98767.13;;;11.69;100.00
17060;BME280;8646;49.716;9.266;2023-10-31T05:03:26;98778.41;;;11.76;100.00
17060;BME280;8646;49.716;9.266;2023-10-31T05:06:29;98727.50;;;11.43;100.00
17060;BME280;8646;49.716;9.266;2023-10-31T05:09:31;98783.00;;;11.75;100.00
17060;BME280;8646;49.716;9.266;2023-10-31T05:12:36;98770.41;;;11.74;100.00
17060;BME280;8646;49.716;9.266;2023-10-31T05:15:39;98798.25;;;11.76;100.00
17060;BME280;8646;49.716;9.266;2023-10-31T05:18:41;98790.13;;;11.76;100.00
17060;BME280;8646;49.716;9.266;2023-10-31T05:21:44;98777.22;;;11.67;100.00
17060;BME280;8646;49.716;9.266;2023-10-31T05:24:47;98786.69;;;11.74;100.00
17060;BME280;8646;49.716;9.266;2023-10-31T05:27:51;98787.06;;;11.68;100.00
17060;BME280;8646;49.716;9.266;2023-10-31T05:30:54;98787.06;;;11.68;100.00
17060;BME280;8646;49.716;9.266;2023-10-31T05:33:57;98779.69;;;11.70;100.00
17060;BME280;8646;49.716;9.266;2023-10-31T05:37:01;98787.28;;;11.65;100.00
17060;BME280;8646;49.716;9.266;2023-10-31T05:40:05;98793.91;;;11.61;100.00
17060;BME280;8646;49.716;9.266;2023-10-31T05:43:10;98794.00;;;11.60;100.00
17060;BME280;8646;49.716;9.266;2023-10-31T05:46:12;98800.53;;;11.57;100.00
17060;BME280;8646;49.716;9.266;2023-10-31T05:49:16;98817.94;;;11.53;100.00
17060;BME280;8646;49.716;9.266;2023-10-31T05:52:19;98815.03;;;11.56;100.00
17060;BME280;8646;49.716;9.266;2023-10-31T05:55:22;98813.31;;;11.55;100.00
17060;BME280;8646;49.716;9.266;2023-10-31T05:58:26;98815.25;;;11.53;100.00
17060;BME280;8646;49.716;9.266;2023-10-31T06:01:29;98823.94;;;11.58;100.00
17060;BME280;8646;49.716;9.266;2023-10-31T06:04:32;98815.34;;;11.52;100.00
17060;BME280;8646;49.716;9.266;2023-10-31T06:07:35;98839.22;;;11.59;100.00
17060;BME280;8646;49.716;9.266;2023-10-31T06:10:38;98825.00;;;11.56;100.00
17060;BME280;8646;49.716;9.266;2023-10-31T06:13:42;98831.50;;;11.53;100.00
17060;BME280;8646;49.716;9.266;2023-10-31T06:16:45;98831.50;;;11.53;99.98
17060;BME280;8646;49.716;9.266;2023-10-31T06:19:48;98835.84;;;11.43;100.00
17060;BME280;8646;49.716;9.266;2023-10-31T06:22:51;98845.13;;;11.52;99.45
17060;BME280;8646;49.716;9.266;2023-10-31T06:25:53;98851.75;;;11.47;99.98
17060;BME280;8646;49.716;9.266;2023-10-31T06:28:58;98861.19;;;11.42;100.00
17060;BME280;8646;49.716;9.266;2023-10-31T06:32:20;98873.53;;;11.46;100.00
17060;BME280;8646;49.716;9.266;2023-10-31T06:35:23;98867.25;;;11.45;100.00
17060;BME280;8646;49.716;9.266;2023-10-31T06:38:27;98880.69;;;11.47;100.00
17060;BME280;8646;49.716;9.266;2023-10-31T06:41:29;98879.81;;;11.46;100.00
17060;BME280;8646;49.716;9.266;2023-10-31T06:44:33;98882.00;;;11.54;100.00
17060;BME280;8646;49.716;9.266;2023-10-31T06:47:36;98881.91;;;11.56;100.00
17060;BME280;8646;49.716;9.266;2023-10-31T06:50:39;98890.88;;;11.56;100.00
17060;BME280;8646;49.716;9.266;2023-10-31T06:53:42;98877.53;;;11.53;100.00
17060;BME280;8646;49.716;9.266;2023-10-31T06:56:44;98901.28;;;11.62;100.00
17060;BME280;8646;49.716;9.266;2023-10-31T06:59:48;98913.00;;;11.63;100.00
17060;BME280;8646;49.716;9.266;2023-10-31T07:02:51;98918.22;;;11.66;100.00
17060;BME280;8646;49.716;9.266;2023-10-31T07:05:54;98923.41;;;11.69;100.00
17060;BME280;8646;49.716;9.266;2023-10-31T07:08:58;98924.88;;;11.74;100.00
17060;BME280;8646;49.716;9.266;2023-10-31T07:12:06;98938.19;;;11.77;100.00
17060;BME280;8646;49.716;9.266;2023-10-31T07:15:10;98930.84;;;11.79;100.00
17060;BME280;8646;49.716;9.266;2023-10-31T07:18:13;98933.75;;;11.76;100.00
17060;BME280;8646;49.716;9.266;2023-10-31T07:21:16;98949.03;;;11.77;100.00
17060;BME280;8646;49.716;9.266;2023-10-31T07:24:19;98951.22;;;11.85;99.71
17060;BME280;8646;49.716;9.266;2023-10-31T07:27:21;98948.50;;;11.85;100.00
17060;BME280;8646;49.716;9.266;2023-10-31T07:30:26;98956.78;;;11.83;100.00
17060;BME280;8646;49.716;9.266;2023-10-31T07:33:28;98931.72;;;11.80;100.00
17060;BME280;8646;49.716;9.266;2023-10-31T07:36:31;98954.84;;;11.98;99.60
17060;BME280;8646;49.716;9.266;2023-10-31T07:39:36;98953.84;;;11.99;99.56
17060;BME280;8646;49.716;9.266;2023-10-31T07:42:39;98940.31;;;11.99;100.00
17060;BME280;8646;49.716;9.266;2023-10-31T07:45:43;98946.69;;;12.11;99.92
17060;BME280;8646;49.716;9.266;2023-10-31T07:48:46;98947.25;;;12.16;98.65
17060;BME280;8646;49.716;9.266;2023-10-31T07:51:49;98954.38;;;12.17;98.65
17060;BME280;8646;49.716;9.266;2023-10-31T07:54:51;98952.56;;;12.30;97.22
17060;BME280;8646;49.716;9.266;2023-10-31T07:57:54;98962.19;;;12.34;96.83
17060;BME280;8646;49.716;9.266;2023-10-31T08:00:59;98970.75;;;12.41;95.98
17060;BME280;8646;49.716;9.266;2023-10-31T08:04:02;98962.00;;;12.37;94.12
17060;BME280;8646;49.716;9.266;2023-10-31T08:07:05;98982.28;;;12.44;94.58
17060;BME280;8646;49.716;9.266;2023-10-31T08:10:08;98989.34;;;12.47;95.02
17060;BME280;8646;49.716;9.266;2023-10-31T08:13:12;98993.34;;;12.54;95.00
17060;BME280;8646;49.716;9.266;2023-10-31T08:16:18;98982.78;;;12.49;94.64
17060;BME280;8646;49.716;9.266;2023-10-31T08:19:21;99005.47;;;12.61;94.60
17060;BME280;8646;49.716;9.266;2023-10-31T08:22:24;99010.03;;;12.60;94.89
17060;BME280;8646;49.716;9.266;2023-10-31T08:25:27;99003.44;;;12.65;94.54
17060;BME280;8646;49.716;9.266;2023-10-31T08:28:30;99007.13;;;12.64;94.23
17060;BME280;8646;49.716;9.266;2023-10-31T08:31:34;99012.75;;;12.60;95.02
17060;BME280;8646;49.716;9.266;2023-10-31T08:34:37;99015.25;;;12.64;94.80
17060;BME280;8646;49.716;9.266;2023-10-31T08:37:40;99024.81;;;12.69;94.89
17060;BME280;8646;49.716;9.266;2023-10-31T08:40:42;99022.28;;;12.66;94.16
17060;BME280;8646;49.716;9.266;2023-10-31T08:43:46;99032.59;;;12.74;95.04
17060;BME280;8646;49.716;9.266;2023-10-31T08:46:50;98992.13;;;12.58;95.32
17060;BME280;8646;49.716;9.266;2023-10-31T08:49:53;99035.94;;;12.90;94.88
17060;BME280;8646;49.716;9.266;2023-10-31T08:52:56;99032.81;;;12.96;94.36
17060;BME280;8646;49.716;9.266;2023-10-31T08:56:03;99041.94;;;12.95;94.40
17060;BME280;8646;49.716;9.266;2023-10-31T08:59:06;99041.69;;;12.98;94.57
17060;BME280;8646;49.716;9.266;2023-10-31T09:02:10;99046.91;;;13.01;94.43
17060;BME280;8646;49.716;9.266;2023-10-31T09:05:13;99050.16;;;13.06;94.48
17060;BME280;8646;49.716;9.266;2023-10-31T09:08:16;99047.78;;;13.14;93.14
17060;BME280;8646;49.716;9.266;2023-10-31T09:11:20;99058.22;;;13.20;93.68
17060;BME280;8646;49.716;9.266;2023-10-31T09:14:23;99058.72;;;13.25;93.67
17060;BME280;8646;49.716;9.266;2023-10-31T09:17:27;99050.97;;;13.32;92.42
17060;BME280;8646;49.716;9.266;2023-10-31T09:20:30;99014.84;;;13.06;91.33
17060;BME280;8646;49.716;9.266;2023-10-31T09:23:33;99061.63;;;13.35;91.13
17060;BME280;8646;49.716;9.266;2023-10-31T09:26:36;99059.25;;;13.30;91.35
17060;BME280;8646;49.716;9.266;2023-10-31T09:29:39;99069.91;;;13.33;92.33
17060;BME280;8646;49.716;9.266;2023-10-31T09:32:43;99067.84;;;13.37;91.96
17060;BME280;8646;49.716;9.266;2023-10-31T09:35:46;99054.47;;;13.34;92.22
17060;BME280;8646;49.716;9.266;2023-10-31T09:38:49;99064.09;;;13.51;92.07
17060;BME280;8646;49.716;9.266;2023-10-31T09:41:51;99069.06;;;13.57;91.12
17060;BME280;8646;49.716;9.266;2023-10-31T09:44:55;99065.00;;;13.62;89.26
17060;BME280;8646;49.716;9.266;2023-10-31T09:48:01;99073.06;;;13.64;89.51
17060;BME280;8646;49.716;9.266;2023-10-31T09:51:05;99036.41;;;13.46;89.33
17060;BME280;8646;49.716;9.266;2023-10-31T09:54:09;99078.66;;;13.73;88.94
17060;BME280;8646;49.716;9.266;2023-10-31T09:57:12;99068.19;;;13.80;86.11
17060;BME280;8646;49.716;9.266;2023-10-31T10:00:15;99074.50;;;13.81;85.21
17060;BME280;8646;49.716;9.266;2023-10-31T10:03:19;99063.81;;;13.66;87.32
17060;BME280;8646;49.716;9.266;2023-10-31T10:06:48;99073.63;;;13.80;87.73
17060;BME280;8646;49.716;9.266;2023-10-31T10:09:52;99075.16;;;13.84;87.40
17060;BME280;8646;49.716;9.266;2023-10-31T10:12:55;99074.16;;;13.85;85.99
17060;BME280;8646;49.716;9.266;2023-10-31T10:15:59;99071.56;;;13.84;87.21
17060;BME280;8646;49.716;9.266;2023-10-31T10:19:16;99016.22;;;13.61;87.12
17060;BME280;8646;49.716;9.266;2023-10-31T10:22:20;99066.81;;;13.98;87.14
17060;BME280;8646;49.716;9.266;2023-10-31T10:25:30;99063.16;;;14.10;86.17
17060;BME280;8646;49.716;9.266;2023-10-31T10:28:46;99071.72;;;14.17;86.19
17060;BME280;8646;49.716;9.266;2023-10-31T10:31:49;99073.84;;;14.25;86.63
17060;BME280;8646;49.716;9.266;2023-10-31T10:34:54;99081.03;;;14.26;86.24
17060;BME280;8646;49.716;9.266;2023-10-31T10:37:58;99078.63;;;14.21;87.22
17060;BME280;8646;49.716;9.266;2023-10-31T10:41:04;99062.03;;;14.13;87.29
17060;BME280;8646;49.716;9.266;2023-10-31T10:44:10;99076.03;;;14.20;87.27
17060;BME280;8646;49.716;9.266;2023-10-31T10:47:15;99077.75;;;14.21;87.69
17060;BME280;8646;49.716;9.266;2023-10-31T10:50:21;99080.47;;;14.21;86.61
17060;BME280;8646;49.716;9.266;2023-10-31T10:53:35;99076.78;;;14.22;86.68
17060;BME280;8646;49.716;9.266;2023-10-31T10:56:54;99070.84;;;14.28;87.10
17060;BME280;8646;49.716;9.266;2023-10-31T11:00:03;99082.59;;;14.41;86.58
17060;BME280;8646;49.716;9.266;2023-10-31T11:03:07;99076.16;;;14.42;86.04
17060;BME280;8646;49.716;9.266;2023-10-31T11:06:12;99076.53;;;14.48;83.85
17060;BME280;8646;49.716;9.266;2023-10-31T11:09:15;99071.97;;;14.49;84.29
17060;BME280;8646;49.716;9.266;2023-10-31T11:12:19;99075.44;;;14.51;85.51
17060;BME280;8646;49.716;9.266;2023-10-31T11:15:24;99082.63;;;14.63;86.30
17060;BME280;8646;49.716;9.266;2023-10-31T11:18:28;99082.41;;;14.77;86.81
17060;BME280;8646;49.716;9.266;2023-10-31T11:21:34;99085.41;;;14.97;86.13
17060;BME280;8646;49.716;9.266;2023-10-31T11:24:37;99083.91;;;15.04;85.88
17060;BME280;8646;49.716;9.266;2023-10-31T11:27:40;99080.06;;;15.17;85.39
17060;BME280;8646;49.716;9.266;2023-10-31T11:30:45;99074.50;;;15.30;80.60
17060;BME280;8646;49.716;9.266;2023-10-31T11:33:51;99077.47;;;15.27;81.69
17060;BME280;8646;49.716;9.266;2023-10-31T11:37:18;99076.59;;;15.38;80.92
17060;BME280;8646;49.716;9.266;2023-10-31T11:40:22;99091.06;;;15.49;81.01
17060;BME280;8646;49.716;9.266;2023-10-31T11:43:25;99075.13;;;15.56;77.35
17060;BME280;8646;49.716;9.266;2023-10-31T11:46:28;99088.00;;;15.54;78.41
17060;BME280;8646;49.716;9.266;2023-10-31T11:57:12;99092.19;;;15.69;77.16
17060;BME280;8646;49.716;9.266;2023-10-31T12:00:29;99093.81;;;15.60;77.11
17060;BME280;8646;49.716;9.266;2023-10-31T12:03:36;99090.09;;;15.61;74.95
17060;BME280;8646;49.716;9.266;2023-10-31T12:06:40;99094.31;;;15.54;76.26
17060;BME280;8646;49.716;9.266;2023-10-31T12:09:45;99095.44;;;15.63;76.63
17060;BME280;8646;49.716;9.266;2023-10-31T12:12:50;99094.03;;;15.80;77.57
17060;BME280;8646;49.716;9.266;2023-10-31T12:15:53;99108.84;;;15.98;75.24
17060;BME280;8646;49.716;9.266;2023-10-31T12:18:57;99086.03;;;15.99;75.52
17060;BME280;8646;49.716;9.266;2023-10-31T12:22:00;99115.34;;;16.18;75.43
17060;BME280;8646;49.716;9.266;2023-10-31T12:25:06;99106.31;;;16.17;74.99
17060;BME280;8646;49.716;9.266;2023-10-31T12:28:16;99113.09;;;16.23;73.36
17060;BME280;8646;49.716;9.266;2023-10-31T12:31:19;99118.19;;;16.27;72.27
17060;BME280;8646;49.716;9.266;2023-10-31T12:34:24;99099.28;;;16.35;68.04
17060;BME280;8646;49.716;9.266;2023-10-31T12:37:27;99121.78;;;16.28;67.37
17060;BME280;8646;49.716;9.266;2023-10-31T12:40:31;99125.50;;;16.27;70.25
17060;BME280;8646;49.716;9.266;2023-10-31T12:43:35;99129.34;;;16.24;70.58
17060;BME280;8646;49.716;9.266;2023-10-31T12:46:40;99130.63;;;16.20;68.05
17060;BME280;8646;49.716;9.266;2023-10-31T12:49:43;99126.53;;;16.15;69.17
17060;BME280;8646;49.716;9.266;2023-10-31T12:52:47;99136.44;;;16.16;69.49
17060;BME280;8646;49.716;9.266;2023-10-31T12:55:50;99132.75;;;16.06;68.23
17060;BME280;8646;49.716;9.266;2023-10-31T12:58:58;99138.13;;;15.96;69.51
17060;BME280;8646;49.716;9.266;2023-10-31T13:02:02;99072.88;;;15.61;69.08
17060;BME280;8646;49.716;9.266;2023-10-31T13:05:10;99145.41;;;16.07;69.66
17060;BME280;8646;49.716;9.266;2023-10-31T13:08:14;99135.63;;;16.04;70.99
17060;BME280;8646;49.716;9.266;2023-10-31T13:11:17;99137.63;;;16.02;71.60
17060;BME280;8646;49.716;9.266;2023-10-31T13:14:28;99147.03;;;15.98;70.27
17060;BME280;8646;49.716;9.266;2023-10-31T13:17:31;99136.91;;;15.89;68.94
17060;BME280;8646;49.716;9.266;2023-10-31T13:20:34;99152.41;;;15.77;68.87
17060;BME280;8646;49.716;9.266;2023-10-31T13:23:37;99160.59;;;15.77;70.51
17060;BME280;8646;49.716;9.266;2023-10-31T13:26:40;99159.97;;;15.85;69.69
17060;BME280;8646;49.716;9.266;2023-10-31T13:29:46;99163.81;;;15.82;70.90
17060;BME280;8646;49.716;9.266;2023-10-31T13:32:51;99157.25;;;15.85;71.15
17060;BME280;8646;49.716;9.266;2023-10-31T13:35:54;99154.88;;;15.91;68.67
17060;BME280;8646;49.716;9.266;2023-10-31T13:38:57;99158.00;;;15.87;70.47
17060;BME280;8646;49.716;9.266;2023-10-31T13:41:59;99156.50;;;15.83;70.24
17060;BME280;8646;49.716;9.266;2023-10-31T13:45:04;99169.88;;;15.86;71.15
17060;BME280;8646;49.716;9.266;2023-10-31T13:48:08;99158.97;;;15.86;72.02
17060;BME280;8646;49.716;9.266;2023-10-31T13:51:12;99174.22;;;15.88;72.10
17060;BME280;8646;49.716;9.266;2023-10-31T13:54:15;99169.88;;;15.86;71.19
17060;BME280;8646;49.716;9.266;2023-10-31T13:57:18;99171.00;;;15.83;72.40
17060;BME280;8646;49.716;9.266;2023-10-31T14:00:22;99164.66;;;15.83;72.85
17060;BME280;8646;49.716;9.266;2023-10-31T14:03:25;99166.00;;;15.99;72.69
17060;BME280;8646;49.716;9.266;2023-10-31T14:06:28;99163.78;;;16.05;72.77
17060;BME280;8646;49.716;9.266;2023-10-31T14:09:33;99168.72;;;16.11;72.85
17060;BME280;8646;49.716;9.266;2023-10-31T14:12:36;99165.66;;;16.04;72.21
17060;BME280;8646;49.716;9.266;2023-10-31T14:15:40;99168.50;;;15.91;72.24
17060;BME280;8646;49.716;9.266;2023-10-31T14:18:43;99170.53;;;15.67;72.38
17060;BME280;8646;49.716;9.266;2023-10-31T14:21:47;99169.00;;;15.41;73.06
17060;BME280;8646;49.716;9.266;2023-10-31T14:24:50;99175.56;;;15.16;73.55
17060;BME280;8646;49.716;9.266;2023-10-31T14:27:53;99186.53;;;14.92;74.45
17060;BME280;8646;49.716;9.266;2023-10-31T14:30:58;99183.00;;;14.68;75.10
17060;BME280;8646;49.716;9.266;2023-10-31T14:34:01;99174.13;;;14.42;75.43
17060;BME280;8646;49.716;9.266;2023-10-31T14:37:09;99184.91;;;14.31;76.47
17060;BME280;8646;49.716;9.266;2023-10-31T14:40:13;99195.50;;;14.23;76.77
17060;BME280;8646;49.716;9.266;2023-10-31T14:43:16;99197.28;;;14.11;77.51
17060;BME280;8646;49.716;9.266;2023-10-31T14:46:23;99208.00;;;14.01;78.23
17060;BME280;8646;49.716;9.266;2023-10-31T14:49:27;99208.13;;;13.87;78.25
17060;BME280;8646;49.716;9.266;2023-10-31T14:52:29;99218.50;;;13.82;78.72
17060;BME280;8646;49.716;9.266;2023-10-31T14:55:32;99222.88;;;13.72;78.94
17060;BME280;8646;49.716;9.266;2023-10-31T14:58:35;99224.09;;;13.68;78.95
17060;BME280;8646;49.716;9.266;2023-10-31T15:01:39;99229.41;;;13.57;79.42
17060;BME280;8646;49.716;9.266;2023-10-31T15:04:42;99239.88;;;13.50;79.76
17060;BME280;8646;49.716;9.266;2023-10-31T15:07:45;99244.88;;;13.44;79.88
17060;BME280;8646;49.716;9.266;2023-10-31T15:10:55;99246.41;;;13.35;80.54
17060;BME280;8646;49.716;9.266;2023-10-31T15:13:58;99242.91;;;13.33;80.64
17060;BME280;8646;49.716;9.266;2023-10-31T15:17:04;99246.94;;;13.27;81.11
17060;BME280;8646;49.716;9.266;2023-10-31T15:20:07;99252.56;;;13.24;81.92
17060;BME280;8646;49.716;9.266;2023-10-31T15:23:11;99252.47;;;13.26;81.61
17060;BME280;8646;49.716;9.266;2023-10-31T15:26:16;99253.44;;;13.25;82.19
17060;BME280;8646;49.716;9.266;2023-10-31T15:29:19;99257.91;;;13.26;82.75
17060;BME280;8646;49.716;9.266;2023-10-31T15:32:23;99265.09;;;13.27;82.58
17060;BME280;8646;49.716;9.266;2023-10-31T15:35:27;99248.56;;;13.17;83.24
17060;BME280;8646;49.716;9.266;2023-10-31T15:38:29;99272.91;;;13.31;83.21
17060;BME280;8646;49.716;9.266;2023-10-31T15:41:33;99279.88;;;13.35;83.73
17060;BME280;8646;49.716;9.266;2023-10-31T15:44:36;99278.75;;;13.38;83.65
17060;BME280;8646;49.716;9.266;2023-10-31T15:47:41;99283.13;;;13.41;83.19
17060;BME280;8646;49.716;9.266;2023-10-31T15:50:44;99294.44;;;13.34;83.13
17060;BME280;8646;49.716;9.266;2023-10-31T15:53:47;99290.63;;;13.24;83.55
17060;BME280;8646;49.716;9.266;2023-10-31T15:56:49;99300.47;;;13.13;83.83
17060;BME280;8646;49.716;9.266;2023-10-31T15:59:52;99313.72;;;13.05;84.58
17060;BME280;8646;49.716;9.266;2023-10-31T16:02:56;99285.53;;;12.93;84.83
17060;BME280;8646;49.716;9.266;2023-10-31T16:05:59;99313.81;;;13.03;85.06
17060;BME280;8646;49.716;9.266;2023-10-31T16:09:03;99304.09;;;12.99;85.07
17060;BME280;8646;49.716;9.266;2023-10-31T16:12:07;99315.31;;;12.94;85.12
17060;BME280;8646;49.716;9.266;2023-10-31T16:15:10;99328.53;;;12.86;85.25
17060;BME280;8646;49.716;9.266;2023-10-31T16:18:15;99330.00;;;12.78;85.46
17060;BME280;8646;49.716;9.266;2023-10-31T16:21:18;99331.41;;;12.71;86.05
17060;BME280;8646;49.716;9.266;2023-10-31T16:24:22;99322.97;;;12.48;86.30
17060;BME280;8646;49.716;9.266;2023-10-31T16:27:25;99349.28;;;12.60;86.87
17060;BME280;8646;49.716;9.266;2023-10-31T16:30:28;99341.63;;;12.53;87.23
17060;BME280;8646;49.716;9.266;2023-10-31T16:33:32;99347.38;;;12.48;87.76